Time;durP1;ratioP1;P1;durP2;ratioP2;P2;SDS_P1;SDS_P2;PMS_P1;PMS_P2;Temp;Humidity;BMP_temperature;BMP_pressure;BME280_temperature;BME280_humidity;BME280_pressure;Samples;Min_cycle;Max_cycle;Signal;HPM_P1;HPM_P2
2024/02/04 00:08:17;;;;;;;;;;;10.00;99.90;;;;;;6746662;87;20501;-76
2024/02/04 00:18:17;;;;;;;;;;;9.90;99.90;;;;;;6743774;87;20108;-76
2024/02/04 00:28:18;;;;;;;;;;;9.90;99.90;;;;;;6752298;87;20483;-74
2024/02/04 00:38:19;;;;;;;;;;;9.80;99.90;;;;;;6747942;87;20065;-74
2024/02/04 00:48:19;;;;;;;;;;;9.60;99.90;;;;;;6749536;87;20078;-74
2024/02/04 00:58:20;;;;;;;;;;;9.50;99.90;;;;;;6745168;87;20072;-74
2024/02/04 01:08:20;;;;;;;;;;;9.50;99.90;;;;;;6747388;87;20496;-74
2024/02/04 01:18:20;;;;;;;;;;;9.50;99.90;;;;;;6744367;88;20111;-75
2024/02/04 01:28:21;;;;;;;;;;;9.60;99.90;;;;;;6743279;87;20067;-74
2024/02/04 01:38:21;;;;;;;;;;;9.50;99.90;;;;;;6747469;87;20102;-74
2024/02/04 01:48:22;;;;;;;;;;;9.50;99.90;;;;;;6742093;87;20054;-74
2024/02/04 01:58:22;;;;;;;;;;;9.50;99.90;;;;;;6748132;87;20069;-74
2024/02/04 02:08:23;;;;;;;;;;;9.50;99.90;;;;;;6747472;87;20053;-74
2024/02/04 02:18:27;;;;;;;;;;;9.70;99.90;;;;;;6745826;87;20757;-74
2024/02/04 02:28:27;;;;;;;;;;;9.70;99.90;;;;;;6742396;87;20119;-75
2024/02/04 02:38:41;;;;;;;;;;;9.70;99.90;;;;;;6744005;87;20075;-75
2024/02/04 02:48:41;;;;;;;;;;;9.80;99.90;;;;;;6745847;87;20050;-75
2024/02/04 02:58:42;;;;;;;;;;;9.80;99.90;;;;;;6747382;87;20061;-75
2024/02/04 03:08:42;;;;;;;;;;;9.90;99.90;;;;;;6748952;87;20679;-75
2024/02/04 03:18:43;;;;;;;;;;;10.10;99.90;;;;;;6749864;87;20082;-75
2024/02/04 03:28:43;;;;;;;;;;;10.10;99.90;;;;;;6756721;87;20071;-75
2024/02/04 03:38:44;;;;;;;;;;;10.10;99.90;;;;;;6751136;87;20047;-75
2024/02/04 03:48:45;;;;;;;;;;;10.10;99.90;;;;;;6749724;87;20114;-75
2024/02/04 03:58:45;;;;;;;;;;;10.20;99.90;;;;;;6757243;87;20109;-75
2024/02/04 04:08:45;;;;;;;;;;;10.20;99.90;;;;;;6749918;87;20053;-75
2024/02/04 04:18:46;;;;;;;;;;;10.20;99.90;;;;;;6749680;87;20183;-75
2024/02/04 04:28:46;;;;;;;;;;;10.20;99.90;;;;;;6747656;87;20918;-75
2024/02/04 04:38:49;;;;;;;;;;;10.30;99.90;;;;;;6743501;87;20122;-75
2024/02/04 04:48:52;;;;;;;;;;;10.20;99.90;;;;;;6747716;87;20073;-75
2024/02/04 04:58:52;;;;;;;;;;;10.20;99.90;;;;;;6745707;77;20069;-77
2024/02/04 05:08:53;;;;;;;;;;;10.20;99.90;;;;;;6745374;87;20079;-77
2024/02/04 05:18:53;;;;;;;;;;;10.20;99.90;;;;;;6740108;87;20065;-77
2024/02/04 05:28:53;;;;;;;;;;;10.20;99.90;;;;;;6749042;87;20088;-77
2024/02/04 05:38:54;;;;;;;;;;;10.20;99.90;;;;;;6746309;87;20103;-77
2024/02/04 05:48:54;;;;;;;;;;;10.20;99.90;;;;;;6756191;87;20080;-77
2024/02/04 05:58:55;;;;;;;;;;;10.30;99.90;;;;;;6749969;87;20500;-77
2024/02/04 06:08:55;;;;;;;;;;;10.30;99.90;;;;;;6768193;87;20069;-77
2024/02/04 06:18:57;;;;;;;;;;;10.30;99.90;;;;;;6753589;87;20108;-77
2024/02/04 06:28:58;;;;;;;;;;;10.30;99.90;;;;;;6751386;87;20076;-77
2024/02/04 06:38:58;;;;;;;;;;;10.30;99.90;;;;;;6751651;87;20818;-77
2024/02/04 06:48:59;;;;;;;;;;;10.20;99.90;;;;;;6751006;87;20078;-77
2024/02/04 06:58:59;;;;;;;;;;;10.20;99.90;;;;;;6747234;87;20085;-77
2024/02/04 07:09:00;;;;;;;;;;;10.20;99.90;;;;;;6747188;87;20127;-77
2024/02/04 07:19:00;;;;;;;;;;;10.20;99.90;;;;;;6743985;87;20872;-77
2024/02/04 07:29:01;;;;;;;;;;;10.10;99.90;;;;;;6745863;87;20194;-77
2024/02/04 07:39:04;;;;;;;;;;;10.10;99.90;;;;;;6748755;87;20057;-77
2024/02/04 07:49:05;;;;;;;;;;;10.30;99.90;;;;;;6748178;87;20512;-77
2024/02/04 07:59:06;;;;;;;;;;;10.40;99.90;;;;;;6747947;87;20107;-78
2024/02/04 08:09:06;;;;;;;;;;;10.50;99.90;;;;;;6738533;88;20155;-77
2024/02/04 08:19:07;;;;;;;;;;;10.50;99.90;;;;;;6745694;88;20050;-77
2024/02/04 08:29:07;;;;;;;;;;;10.60;99.90;;;;;;6752419;88;20068;-79
2024/02/04 08:39:08;;;;;;;;;;;10.90;99.90;;;;;;6745237;88;20111;-77
2024/02/04 08:49:08;;;;;;;;;;;10.90;99.90;;;;;;6747371;88;20054;-77
2024/02/04 08:59:09;;;;;;;;;;;11.00;99.90;;;;;;6757693;87;20226;-77
2024/02/04 09:09:09;;;;;;;;;;;11.30;99.90;;;;;;6761586;87;20121;-78
2024/02/04 09:19:10;;;;;;;;;;;11.40;99.90;;;;;;6757103;87;20101;-78
2024/02/04 09:29:10;;;;;;;;;;;11.40;99.90;;;;;;6753435;87;20287;-78
2024/02/04 09:39:10;;;;;;;;;;;11.30;99.90;;;;;;6758238;87;20083;-77
2024/02/04 09:49:12;;;;;;;;;;;11.30;99.90;;;;;;6760802;87;20152;-77
2024/02/04 09:59:13;;;;;;;;;;;11.30;99.90;;;;;;6760888;87;20551;-77
2024/02/04 10:09:13;;;;;;;;;;;11.40;99.90;;;;;;6761679;87;20080;-78
2024/02/04 10:19:14;;;;;;;;;;;11.60;99.90;;;;;;6756189;87;20065;-80
2024/02/04 10:29:14;;;;;;;;;;;11.60;99.90;;;;;;6768003;88;20146;-80
2024/02/04 10:39:15;;;;;;;;;;;11.90;99.90;;;;;;6779265;87;20088;-80
2024/02/04 10:49:17;;;;;;;;;;;12.40;99.90;;;;;;6764776;88;20052;-78
2024/02/04 10:59:19;;;;;;;;;;;13.00;99.90;;;;;;6741934;77;20125;-75
2024/02/04 11:09:19;;;;;;;;;;;12.70;99.90;;;;;;6719358;88;20109;-74
2024/02/04 11:19:33;;;;;;;;;;;12.70;99.90;;;;;;6733337;88;20059;-76
2024/02/04 11:29:35;;;;;;;;;;;12.70;99.90;;;;;;6729455;88;20046;-76
2024/02/04 11:39:36;;;;;;;;;;;12.70;99.90;;;;;;6727043;88;20141;-74
2024/02/04 11:49:36;;;;;;;;;;;12.70;99.90;;;;;;6726700;88;20074;-75
2024/02/04 11:59:37;;;;;;;;;;;12.30;99.90;;;;;;6732228;88;20070;-75
2024/02/04 12:09:38;;;;;;;;;;;12.10;99.90;;;;;;6732098;88;20062;-75
2024/02/04 12:19:38;;;;;;;;;;;11.90;99.90;;;;;;6726682;88;20613;-74
2024/02/04 12:29:38;;;;;;;;;;;12.10;99.90;;;;;;6729398;88;20199;-75
2024/02/04 12:39:39;;;;;;;;;;;12.70;99.90;;;;;;6724083;88;20104;-76
2024/02/04 12:49:39;;;;;;;;;;;12.60;99.90;;;;;;6726736;88;20183;-75
2024/02/04 12:59:40;;;;;;;;;;;12.70;99.90;;;;;;6726100;88;20197;-75
2024/02/04 13:09:40;;;;;;;;;;;12.70;99.90;;;;;;6730138;88;20113;-75
2024/02/04 13:19:42;;;;;;;;;;;12.70;99.90;;;;;;6726891;88;20169;-77
2024/02/04 13:29:42;;;;;;;;;;;12.60;99.90;;;;;;6727678;88;20076;-75
2024/02/04 13:39:44;;;;;;;;;;;12.30;99.90;;;;;;6730705;88;20091;-74
2024/02/04 13:49:44;;;;;;;;;;;12.30;99.90;;;;;;6731426;88;20054;-74
2024/02/04 13:59:45;;;;;;;;;;;12.50;99.90;;;;;;6728037;88;20083;-74
2024/02/04 14:09:45;;;;;;;;;;;12.60;99.90;;;;;;6730771;88;20051;-74
2024/02/04 14:19:49;;;;;;;;;;;12.70;99.90;;;;;;6727414;88;20112;-74
2024/02/04 14:29:49;;;;;;;;;;;12.70;99.90;;;;;;6729978;88;20191;-74
2024/02/04 14:39:50;;;;;;;;;;;12.60;99.90;;;;;;6726886;88;20109;-74
2024/02/04 14:49:50;;;;;;;;;;;12.50;99.90;;;;;;6726065;88;20071;-74
2024/02/04 14:59:51;;;;;;;;;;;12.40;99.90;;;;;;6726613;88;20083;-74
2024/02/04 15:09:53;;;;;;;;;;;12.30;99.90;;;;;;6725682;88;20524;-74
2024/02/04 15:19:54;;;;;;;;;;;12.30;99.90;;;;;;6725493;88;20141;-74
2024/02/04 15:29:55;;;;;;;;;;;12.20;99.90;;;;;;6727169;88;20158;-73
2024/02/04 15:39:56;;;;;;;;;;;12.20;99.90;;;;;;6728894;88;20277;-75
2024/02/04 15:49:57;;;;;;;;;;;12.20;99.90;;;;;;6723443;88;20792;-74
2024/02/04 16:00:00;;;;;;;;;;;12.30;99.90;;;;;;6724646;88;20172;-74
2024/02/04 16:10:01;;;;;;;;;;;12.20;99.90;;;;;;6727811;88;20079;-74
2024/02/04 16:20:02;;;;;;;;;;;12.20;99.90;;;;;;6724556;88;20067;-75
2024/02/04 16:30:03;;;;;;;;;;;12.10;99.90;;;;;;6730966;88;20081;-75
2024/02/04 16:40:04;;;;;;;;;;;12.10;99.90;;;;;;6731984;88;20208;-76
2024/02/04 16:50:05;;;;;;;;;;;12.00;99.90;;;;;;6737718;88;20080;-75
2024/02/04 17:00:06;;;;;;;;;;;12.00;99.90;;;;;;6734869;77;20060;-77
2024/02/04 17:10:08;;;;;;;;;;;12.00;99.90;;;;;;6708429;88;20494;-75
2024/02/04 17:20:15;;;;;;;;;;;11.90;99.90;;;;;;6712105;88;20064;-75
2024/02/04 17:30:16;;;;;;;;;;;12.00;99.90;;;;;;6721151;88;20059;-77
2024/02/04 17:40:16;;;;;;;;;;;12.00;99.90;;;;;;6714867;88;20068;-77
2024/02/04 17:50:17;;;;;;;;;;;11.90;99.90;;;;;;6719278;88;20085;-74
2024/02/04 18:00:17;;;;;;;;;;;12.00;99.90;;;;;;6711783;88;20458;-77
2024/02/04 18:10:18;;;;;;;;;;;11.90;99.90;;;;;;6710387;88;20554;-76
2024/02/04 18:20:18;;;;;;;;;;;12.00;99.90;;;;;;6708595;88;20051;-76
2024/02/04 18:30:21;;;;;;;;;;;11.90;99.90;;;;;;6707022;88;20080;-75
2024/02/04 18:40:21;;;;;;;;;;;12.00;99.90;;;;;;6711200;88;20070;-76
2024/02/04 18:50:22;;;;;;;;;;;11.90;99.90;;;;;;6714130;88;20059;-77
2024/02/04 19:00:22;;;;;;;;;;;11.90;99.90;;;;;;6715019;88;20105;-77
2024/02/04 19:10:22;;;;;;;;;;;11.90;99.90;;;;;;6706841;88;20490;-76
2024/02/04 19:20:23;;;;;;;;;;;11.80;99.90;;;;;;6713681;88;20027;-77
2024/02/04 19:30:24;;;;;;;;;;;11.80;99.90;;;;;;6720216;88;20084;-76
2024/02/04 19:40:25;;;;;;;;;;;11.70;99.90;;;;;;6722098;88;20056;-77
2024/02/04 19:50:26;;;;;;;;;;;11.80;99.90;;;;;;6729837;88;20085;-76
2024/02/04 20:00:27;;;;;;;;;;;11.70;99.90;;;;;;6715185;88;20083;-75
2024/02/04 20:10:27;;;;;;;;;;;11.60;99.90;;;;;;6720013;88;20059;-76
2024/02/04 20:20:28;;;;;;;;;;;11.30;99.90;;;;;;6721791;88;20232;-74
2024/02/04 20:30:29;;;;;;;;;;;11.20;99.90;;;;;;6717114;88;20110;-76
2024/02/04 20:40:30;;;;;;;;;;;11.10;99.90;;;;;;6714265;88;20074;-76
2024/02/04 20:50:31;;;;;;;;;;;11.20;99.90;;;;;;6714064;88;20241;-77
2024/02/04 21:00:32;;;;;;;;;;;11.20;99.90;;;;;;6714025;88;20185;-76
2024/02/04 21:10:33;;;;;;;;;;;11.30;99.90;;;;;;6713843;88;20076;-76
2024/02/04 21:20:33;;;;;;;;;;;11.30;99.90;;;;;;6710588;88;20063;-77
2024/02/04 21:30:34;;;;;;;;;;;11.40;99.90;;;;;;6720131;88;20087;-75
2024/02/04 21:40:34;;;;;;;;;;;11.30;99.90;;;;;;6712375;88;20092;-78
2024/02/04 21:50:39;;;;;;;;;;;11.60;99.90;;;;;;6711620;88;20059;-76
2024/02/04 22:00:41;;;;;;;;;;;11.60;99.90;;;;;;6711779;88;20116;-76
2024/02/04 22:10:41;;;;;;;;;;;11.60;99.90;;;;;;6710589;88;20103;-77
2024/02/04 22:20:47;;;;;;;;;;;11.30;99.90;;;;;;6720703;88;20570;-78
2024/02/04 22:30:48;;;;;;;;;;;11.10;99.90;;;;;;6718796;88;20306;-76
2024/02/04 22:40:49;;;;;;;;;;;10.80;99.90;;;;;;6715642;88;20086;-76
2024/02/04 22:50:49;;;;;;;;;;;10.70;99.90;;;;;;6710550;88;20680;-77
2024/02/04 23:00:49;;;;;;;;;;;10.80;99.90;;;;;;6715916;88;20082;-76
2024/02/04 23:10:50;;;;;;;;;;;10.80;99.90;;;;;;6717130;77;20088;-75
2024/02/04 23:20:50;;;;;;;;;;;10.90;99.90;;;;;;6716233;88;20482;-74
2024/02/04 23:30:51;;;;;;;;;;;11.10;99.90;;;;;;6723422;88;20076;-74
2024/02/04 23:40:51;;;;;;;;;;;11.10;99.90;;;;;;6732553;88;20103;-75
2024/02/04 23:50:52;;;;;;;;;;;11.20;99.90;;;;;;6737900;88;20550;-75
